createdAt,value
2023-03-18T00:00:29.187Z,5.30
2023-03-18T00:01:31.200Z,5.30
2023-03-18T00:02:34.038Z,5.30
2023-03-18T00:03:38.146Z,5.30
2023-03-18T00:04:40.871Z,5.30
2023-03-18T00:05:42.700Z,5.30
2023-03-18T00:06:44.661Z,5.30
2023-03-18T00:07:47.640Z,5.30
2023-03-18T00:08:49.808Z,5.30
2023-03-18T00:09:52.952Z,5.30
2023-03-18T00:10:54.784Z,5.30
2023-03-18T00:11:56.970Z,5.30
2023-03-18T00:12:59.791Z,5.30
2023-03-18T00:14:01.602Z,5.30
2023-03-18T00:15:03.501Z,5.20
2023-03-18T00:16:06.847Z,5.30
2023-03-18T00:17:09.623Z,5.30
2023-03-18T00:18:11.458Z,5.30
2023-03-18T00:19:13.357Z,5.30
2023-03-18T00:20:17.135Z,5.20
2023-03-18T00:21:19.536Z,5.20
2023-03-18T00:22:21.846Z,5.20
2023-03-18T00:23:23.785Z,5.20
2023-03-18T00:24:27.940Z,5.20
2023-03-18T00:25:29.724Z,5.20
2023-03-18T00:26:31.953Z,5.20
2023-03-18T00:27:34.879Z,5.20
2023-03-18T00:28:37.543Z,5.20
2023-03-18T00:29:40.170Z,5.20
2023-03-18T00:30:42.731Z,5.20
2023-03-18T00:31:44.951Z,5.20
2023-03-18T00:32:47.547Z,5.20
2023-03-18T00:33:50.477Z,5.20
2023-03-18T00:34:53.268Z,5.20
2023-03-18T00:35:55.179Z,5.10
2023-03-18T00:36:57.278Z,5.10
2023-03-18T00:38:00.530Z,5.10
2023-03-18T00:39:03.730Z,5.10
2023-03-18T00:40:07.913Z,5.10
2023-03-18T00:41:16.041Z,5.10
2023-03-18T00:42:18.399Z,5.10
2023-03-18T00:43:23.004Z,5.10
2023-03-18T00:44:26.320Z,5.10
2023-03-18T00:45:28.545Z,5.10
2023-03-18T00:46:31.899Z,5.10
2023-03-18T00:47:33.940Z,5.10
2023-03-18T00:48:36.557Z,5.00
2023-03-18T00:49:38.497Z,5.00
2023-03-18T00:50:41.650Z,5.00
2023-03-18T00:51:43.964Z,5.00
2023-03-18T00:52:45.844Z,5.00
2023-03-18T00:53:49.910Z,5.00
2023-03-18T00:54:51.722Z,5.00
2023-03-18T00:55:53.953Z,5.00
2023-03-18T00:56:57.825Z,5.00
2023-03-18T00:57:59.744Z,5.00
2023-03-18T00:59:01.597Z,5.00
2023-03-18T01:00:06.733Z,5.00
2023-03-18T01:01:09.029Z,5.10
2023-03-18T01:02:11.023Z,5.00
2023-03-18T01:03:14.229Z,5.00
2023-03-18T01:04:16.647Z,5.00
2023-03-18T01:05:18.836Z,5.00
2023-03-18T01:06:23.042Z,5.00
2023-03-18T01:07:25.339Z,5.00
2023-03-18T01:08:27.339Z,5.00
2023-03-18T01:09:29.694Z,5.00
2023-03-18T01:10:32.046Z,5.00
2023-03-18T01:11:34.075Z,5.00
2023-03-18T01:12:36.112Z,5.00
2023-03-18T01:13:38.863Z,5.00
2023-03-18T01:14:44.499Z,5.00
2023-03-18T01:15:49.049Z,5.00
2023-03-18T01:16:51.197Z,5.00
2023-03-18T01:17:57.010Z,5.00
2023-03-18T01:18:59.962Z,5.00
2023-03-18T01:20:04.112Z,5.00
2023-03-18T01:21:05.990Z,5.00
2023-03-18T01:22:08.212Z,5.00
2023-03-18T01:23:10.756Z,5.00
2023-03-18T01:24:13.462Z,5.00
2023-03-18T01:25:18.109Z,5.00
2023-03-18T01:26:20.128Z,5.00
2023-03-18T01:27:22.012Z,5.00
2023-03-18T01:28:24.313Z,5.00
2023-03-18T01:29:26.153Z,5.00
2023-03-18T01:30:28.686Z,5.00
2023-03-18T01:31:30.687Z,5.00
2023-03-18T01:32:33.159Z,5.00
2023-03-18T01:33:35.849Z,5.00
2023-03-18T01:34:37.745Z,5.00
2023-03-18T01:35:39.726Z,5.00
2023-03-18T01:36:42.182Z,5.00
2023-03-18T01:37:44.484Z,5.00
2023-03-18T01:38:46.665Z,5.00
2023-03-18T01:39:48.748Z,5.00
2023-03-18T01:40:51.124Z,5.00
2023-03-18T01:41:55.834Z,5.00
2023-03-18T01:43:15.183Z,4.90
2023-03-18T01:44:22.983Z,5.00
2023-03-18T01:45:29.982Z,4.90
2023-03-18T01:46:34.627Z,4.90
2023-03-18T01:47:36.625Z,4.90
2023-03-18T01:48:39.987Z,4.90
2023-03-18T01:49:52.629Z,4.90
2023-03-18T01:51:07.523Z,4.90
2023-03-18T01:52:17.385Z,4.90
2023-03-18T01:53:20.421Z,4.90
2023-03-18T01:54:23.273Z,4.80
2023-03-18T01:55:30.780Z,4.80
2023-03-18T01:56:33.801Z,4.80
2023-03-18T01:57:35.871Z,4.80
2023-03-18T01:58:40.509Z,4.80
2023-03-18T01:59:42.622Z,4.80
2023-03-18T02:00:51.755Z,4.70
2023-03-18T02:02:02.233Z,4.80
2023-03-18T02:03:06.353Z,4.70
2023-03-18T02:04:10.644Z,4.70
2023-03-18T02:05:16.491Z,4.70
2023-03-18T02:06:18.871Z,4.70
2023-03-18T02:07:30.461Z,4.70
2023-03-18T02:08:32.495Z,4.70
2023-03-18T02:09:34.754Z,4.70
2023-03-18T02:10:38.340Z,4.70
2023-03-18T02:11:45.672Z,4.70
2023-03-18T02:12:52.217Z,4.70
2023-03-18T02:13:54.942Z,4.70
2023-03-18T02:14:58.746Z,4.60
2023-03-18T02:16:07.560Z,4.60
2023-03-18T02:17:14.807Z,4.60
2023-03-18T02:18:33.836Z,4.60
2023-03-18T02:19:54.524Z,4.60
2023-03-18T02:20:59.876Z,4.60
2023-03-18T02:22:22.796Z,4.60
2023-03-18T02:24:06.736Z,4.60
2023-03-18T02:25:14.278Z,4.60
2023-03-18T02:26:27.627Z,4.50
2023-03-18T02:27:34.863Z,4.50
2023-03-18T02:28:37.675Z,4.50
2023-03-18T02:29:42.412Z,4.50
2023-03-18T02:30:47.763Z,4.50
2023-03-18T02:33:01.073Z,4.50
2023-03-18T02:34:05.653Z,4.50
2023-03-18T02:35:10.649Z,4.50
2023-03-18T02:36:25.278Z,4.50
2023-03-18T02:37:27.391Z,4.50
2023-03-18T02:38:29.454Z,4.50
2023-03-18T02:39:31.812Z,4.50
2023-03-18T02:40:39.069Z,4.50
2023-03-18T02:41:41.340Z,4.50
2023-03-18T02:42:44.641Z,4.50
2023-03-18T02:43:47.932Z,4.40
2023-03-18T02:44:57.188Z,4.40
2023-03-18T02:46:22.301Z,4.40
2023-03-18T02:47:28.432Z,4.40
2023-03-18T02:48:36.669Z,4.40
2023-03-18T02:49:38.818Z,4.40
2023-03-18T02:50:42.396Z,4.40
2023-03-18T02:51:44.808Z,4.40
2023-03-18T02:52:47.478Z,4.40
2023-03-18T02:53:50.798Z,4.40
2023-03-18T02:54:53.515Z,4.40
2023-03-18T02:55:55.444Z,4.50
2023-03-18T02:56:57.826Z,4.40
2023-03-18T02:57:59.812Z,4.50
2023-03-18T02:59:01.843Z,4.40
2023-03-18T03:00:05.881Z,4.40
2023-03-18T03:01:08.677Z,4.40
2023-03-18T03:02:10.836Z,4.40
2023-03-18T03:03:13.170Z,4.40
2023-03-18T03:04:16.284Z,4.40
2023-03-18T03:05:18.318Z,4.40
2023-03-18T03:06:21.099Z,4.40
2023-03-18T03:07:27.895Z,4.40
2023-03-18T03:08:30.578Z,4.40
2023-03-18T03:09:32.506Z,4.40
2023-03-18T03:10:34.543Z,4.40
2023-03-18T03:11:37.653Z,4.40
2023-03-18T03:12:39.842Z,4.30
2023-03-18T03:13:45.362Z,4.30
2023-03-18T03:14:47.273Z,4.30
2023-03-18T03:15:49.805Z,4.30
2023-03-18T03:16:52.165Z,4.40
2023-03-18T03:17:54.919Z,4.30
2023-03-18T03:18:57.242Z,4.30
2023-03-18T03:19:59.809Z,4.30
2023-03-18T03:21:01.916Z,4.30
2023-03-18T03:22:04.192Z,4.30
2023-03-18T03:23:07.709Z,4.30
2023-03-18T03:24:11.221Z,4.30
2023-03-18T03:25:13.476Z,4.30
2023-03-18T03:26:16.920Z,4.30
2023-03-18T03:27:18.893Z,4.30
2023-03-18T03:28:21.820Z,4.30
2023-03-18T03:29:23.819Z,4.30
2023-03-18T03:30:26.371Z,4.30
2023-03-18T03:31:28.447Z,4.30
2023-03-18T03:32:30.459Z,4.30
2023-03-18T03:33:33.358Z,4.30
2023-03-18T03:34:35.238Z,4.30
2023-03-18T03:35:38.898Z,4.30
2023-03-18T03:36:40.894Z,4.30
2023-03-18T03:37:43.934Z,4.30
2023-03-18T03:38:46.466Z,4.30
2023-03-18T03:39:49.103Z,4.30
2023-03-18T03:40:51.520Z,4.30
2023-03-18T03:41:53.519Z,4.20
2023-03-18T03:42:55.841Z,4.20
2023-03-18T03:43:57.920Z,4.30
2023-03-18T03:45:00.162Z,4.30
2023-03-18T03:46:02.239Z,4.20
2023-03-18T03:47:04.278Z,4.30
2023-03-18T03:48:06.803Z,4.30
2023-03-18T03:49:08.821Z,4.30
2023-03-18T03:50:12.062Z,4.30
2023-03-18T03:51:15.375Z,4.30
2023-03-18T03:52:19.931Z,4.30
2023-03-18T03:53:22.521Z,4.30
2023-03-18T03:54:25.826Z,4.30
2023-03-18T03:55:28.355Z,4.30
2023-03-18T03:56:31.625Z,4.30
2023-03-18T03:57:34.032Z,4.30
2023-03-18T03:58:36.334Z,4.30
2023-03-18T03:59:38.534Z,4.30
2023-03-18T04:00:40.574Z,4.30
2023-03-18T04:01:42.491Z,4.30
2023-03-18T04:02:45.546Z,4.30
2023-03-18T04:03:47.487Z,4.30
2023-03-18T04:04:50.602Z,4.30
2023-03-18T04:05:52.783Z,4.40
2023-03-18T04:06:55.233Z,4.30
2023-03-18T04:08:00.113Z,4.30
2023-03-18T04:09:03.640Z,4.30
2023-03-18T04:10:06.705Z,4.30
2023-03-18T04:11:10.246Z,4.30
2023-03-18T04:12:12.784Z,4.30
2023-03-18T04:13:14.744Z,4.30
2023-03-18T04:14:17.601Z,4.30
2023-03-18T04:15:22.063Z,4.40
2023-03-18T04:16:24.106Z,4.40
2023-03-18T04:17:26.098Z,4.40
2023-03-18T04:18:28.124Z,4.40
2023-03-18T04:19:30.550Z,4.40
2023-03-18T04:20:34.712Z,4.40
2023-03-18T04:21:37.039Z,4.40
2023-03-18T04:22:39.186Z,4.40
2023-03-18T04:23:41.709Z,4.40
2023-03-18T04:24:44.895Z,4.40
2023-03-18T04:25:47.414Z,4.40
2023-03-18T04:26:50.223Z,4.40
2023-03-18T04:27:55.549Z,4.40
2023-03-18T04:28:57.867Z,4.40
2023-03-18T04:30:00.853Z,4.40
2023-03-18T04:31:02.867Z,4.40
2023-03-18T04:32:05.138Z,4.40
2023-03-18T04:33:07.050Z,4.40
2023-03-18T04:34:10.015Z,4.40
2023-03-18T04:35:12.480Z,4.40
2023-03-18T04:36:14.507Z,4.40
2023-03-18T04:37:20.049Z,4.40
2023-03-18T04:38:22.004Z,4.40
2023-03-18T04:39:24.214Z,4.40
2023-03-18T04:40:26.506Z,4.40
2023-03-18T04:41:28.566Z,4.40
2023-03-18T04:42:30.553Z,4.40
2023-03-18T04:43:33.052Z,4.40
2023-03-18T04:44:34.976Z,4.40
2023-03-18T04:45:36.953Z,4.40
2023-03-18T04:46:39.151Z,4.50
2023-03-18T04:47:42.636Z,4.50
2023-03-18T04:48:44.992Z,4.50
2023-03-18T04:49:46.869Z,4.50
2023-03-18T04:50:48.873Z,4.50
2023-03-18T04:51:50.859Z,4.50
2023-03-18T04:52:52.756Z,4.50
2023-03-18T04:53:54.724Z,4.50
2023-03-18T04:54:56.730Z,4.50
2023-03-18T04:55:58.837Z,4.50
2023-03-18T04:57:01.089Z,4.50
2023-03-18T04:58:03.405Z,4.50
2023-03-18T04:59:05.912Z,4.50
2023-03-18T05:00:11.712Z,4.50
2023-03-18T05:01:14.263Z,4.50
2023-03-18T05:02:16.222Z,4.50
2023-03-18T05:03:18.478Z,4.50
2023-03-18T05:04:20.648Z,4.50
2023-03-18T05:05:22.767Z,4.50
2023-03-18T05:06:28.019Z,4.50
2023-03-18T05:07:30.152Z,4.50
2023-03-18T05:08:32.319Z,4.50
2023-03-18T05:09:34.448Z,4.50
2023-03-18T05:10:36.933Z,4.50
2023-03-18T05:11:39.028Z,4.60
2023-03-18T05:12:42.222Z,4.50
2023-03-18T05:13:44.342Z,4.50
2023-03-18T05:14:46.290Z,4.50
2023-03-18T05:15:50.804Z,4.50
2023-03-18T05:16:53.771Z,4.50
2023-03-18T05:17:55.783Z,4.50
2023-03-18T05:18:57.981Z,4.50
2023-03-18T05:19:59.926Z,4.50
2023-03-18T05:21:02.737Z,4.50
2023-03-18T05:22:04.758Z,4.50
2023-03-18T05:23:06.757Z,4.50
2023-03-18T05:24:10.081Z,4.50
2023-03-18T05:25:12.757Z,4.50
2023-03-18T05:26:14.991Z,4.50
2023-03-18T05:27:19.392Z,4.50
2023-03-18T05:28:21.933Z,4.50
2023-03-18T05:29:24.139Z,4.50
2023-03-18T05:30:26.114Z,4.50
2023-03-18T05:31:28.074Z,4.50
2023-03-18T05:32:32.270Z,4.50
2023-03-18T05:33:34.379Z,4.60
2023-03-18T05:34:39.058Z,4.60
2023-03-18T05:35:41.529Z,4.60
2023-03-18T05:36:44.173Z,4.60
2023-03-18T05:37:46.942Z,4.60
2023-03-18T05:38:49.106Z,4.60
2023-03-18T05:39:51.401Z,4.60
2023-03-18T05:40:53.472Z,4.60
2023-03-18T05:41:55.396Z,4.60
2023-03-18T05:42:57.476Z,4.60
2023-03-18T05:43:59.528Z,4.60
2023-03-18T05:45:02.269Z,4.60
2023-03-18T05:46:05.725Z,4.60
2023-03-18T05:47:08.562Z,4.60
2023-03-18T05:48:10.844Z,4.60
2023-03-18T05:49:12.949Z,4.60
2023-03-18T05:50:15.091Z,4.60
2023-03-18T05:51:17.133Z,4.60
2023-03-18T05:52:19.555Z,4.70
2023-03-18T05:53:22.207Z,4.70
2023-03-18T05:54:24.275Z,4.60
2023-03-18T05:55:28.424Z,4.70
2023-03-18T05:56:31.297Z,4.70
2023-03-18T05:57:33.580Z,4.70
2023-03-18T05:58:35.648Z,4.70
2023-03-18T05:59:38.304Z,4.70
2023-03-18T06:00:41.594Z,4.70
2023-03-18T06:01:44.732Z,4.70
2023-03-18T06:02:47.816Z,4.70
2023-03-18T06:03:49.758Z,4.70
2023-03-18T06:04:51.687Z,4.70
2023-03-18T06:05:54.001Z,4.70
2023-03-18T06:06:57.108Z,4.70
2023-03-18T06:07:59.534Z,4.70
2023-03-18T06:09:01.492Z,4.70
2023-03-18T06:10:03.685Z,4.70
2023-03-18T06:11:05.680Z,4.80
2023-03-18T06:12:07.861Z,4.80
2023-03-18T06:13:11.841Z,4.80
2023-03-18T06:14:14.479Z,4.80
2023-03-18T06:15:17.426Z,4.80
2023-03-18T06:16:19.525Z,4.80
2023-03-18T06:17:22.299Z,4.80
2023-03-18T06:18:24.662Z,4.80
2023-03-18T06:19:28.556Z,4.80
2023-03-18T06:20:31.017Z,4.90
2023-03-18T06:21:33.244Z,4.90
2023-03-18T06:22:36.200Z,4.90
2023-03-18T06:23:38.754Z,4.90
2023-03-18T06:24:41.069Z,4.90
2023-03-18T06:25:43.352Z,4.90
2023-03-18T06:26:45.269Z,4.90
2023-03-18T06:27:48.071Z,5.00
2023-03-18T06:28:50.119Z,5.00
2023-03-18T06:29:52.198Z,5.00
2023-03-18T06:30:58.149Z,5.00
2023-03-18T06:32:00.103Z,5.00
2023-03-18T06:33:02.587Z,5.00
2023-03-18T06:34:05.111Z,5.00
2023-03-18T06:35:07.903Z,5.00
2023-03-18T06:36:10.843Z,5.10
2023-03-18T06:37:12.796Z,5.10
2023-03-18T06:38:15.777Z,5.10
2023-03-18T06:39:19.056Z,5.10
2023-03-18T06:40:22.550Z,5.10
2023-03-18T06:41:24.546Z,5.20
2023-03-18T06:42:26.695Z,5.20
2023-03-18T06:43:28.776Z,5.20
2023-03-18T06:44:30.895Z,5.30
2023-03-18T06:45:33.369Z,5.30
2023-03-18T06:46:36.069Z,5.40
2023-03-18T06:47:38.654Z,5.40
2023-03-18T06:48:40.888Z,5.50
2023-03-18T06:49:43.108Z,5.50
2023-03-18T06:50:45.901Z,5.60
2023-03-18T06:51:48.786Z,5.60
2023-03-18T06:52:50.773Z,5.60
2023-03-18T06:53:52.957Z,5.60
2023-03-18T06:54:54.960Z,5.60
2023-03-18T06:55:56.888Z,5.60
2023-03-18T06:56:59.126Z,5.60
2023-03-18T06:58:01.228Z,5.60
2023-03-18T06:59:04.025Z,5.70
2023-03-18T07:00:06.818Z,5.70
2023-03-18T07:01:08.825Z,5.70
2023-03-18T07:02:11.144Z,5.70
2023-03-18T07:03:15.804Z,5.70
2023-03-18T07:04:17.910Z,5.70
2023-03-18T07:05:20.883Z,5.70
2023-03-18T07:06:22.854Z,5.80
2023-03-18T07:07:24.816Z,5.80
2023-03-18T07:08:26.856Z,5.80
2023-03-18T07:09:30.125Z,5.80
2023-03-18T07:10:32.176Z,5.90
2023-03-18T07:11:34.141Z,5.90
2023-03-18T07:12:36.125Z,5.90
2023-03-18T07:13:38.041Z,5.90
2023-03-18T07:14:41.060Z,5.90
2023-03-18T07:15:43.888Z,6.00
2023-03-18T07:16:46.458Z,6.00
2023-03-18T07:17:50.158Z,6.10
2023-03-18T07:18:52.663Z,6.10
2023-03-18T07:19:54.741Z,6.10
2023-03-18T07:20:56.731Z,6.20
2023-03-18T07:21:59.225Z,6.20
2023-03-18T07:23:01.511Z,6.20
2023-03-18T07:24:04.114Z,6.20
2023-03-18T07:25:06.530Z,6.30
2023-03-18T07:26:09.171Z,6.30
2023-03-18T07:27:13.441Z,6.20
2023-03-18T07:28:15.731Z,6.30
2023-03-18T07:29:18.654Z,6.30
2023-03-18T07:30:21.368Z,6.30
2023-03-18T07:31:23.779Z,6.40
2023-03-18T07:32:25.725Z,6.40
2023-03-18T07:33:27.679Z,6.40
2023-03-18T07:34:29.657Z,6.50
2023-03-18T07:35:31.948Z,6.50
2023-03-18T07:36:34.061Z,6.50
2023-03-18T07:37:36.076Z,6.60
2023-03-18T07:38:38.057Z,6.70
2023-03-18T07:39:40.595Z,6.70
2023-03-18T07:41:07.187Z,6.70
2023-03-18T07:42:10.846Z,6.80
2023-03-18T07:43:12.721Z,6.80
2023-03-18T07:44:14.886Z,6.90
2023-03-18T07:45:16.894Z,6.90
2023-03-18T07:46:18.964Z,7.00
2023-03-18T07:47:21.055Z,7.00
2023-03-18T07:48:23.047Z,7.00
2023-03-18T07:49:25.063Z,7.00
2023-03-18T07:50:28.014Z,7.10
2023-03-18T07:51:30.509Z,7.10
2023-03-18T07:52:32.497Z,7.10
2023-03-18T07:53:35.854Z,7.10
2023-03-18T07:54:37.934Z,7.20
2023-03-18T07:55:40.887Z,7.20
2023-03-18T07:56:42.882Z,7.20
2023-03-18T07:57:45.023Z,7.20
2023-03-18T07:58:48.028Z,7.20
2023-03-18T07:59:50.103Z,7.20
2023-03-18T08:00:54.116Z,7.20
2023-03-18T08:01:56.742Z,7.20
2023-03-18T08:02:58.861Z,7.20
2023-03-18T08:04:00.922Z,7.30
2023-03-18T08:05:04.503Z,7.30
2023-03-18T08:06:06.758Z,7.40
2023-03-18T08:07:09.106Z,7.40
2023-03-18T08:08:11.644Z,7.40
2023-03-18T08:09:14.375Z,7.40
2023-03-18T08:10:17.450Z,7.50
2023-03-18T08:11:19.553Z,7.50
2023-03-18T08:12:21.942Z,7.50
2023-03-18T08:13:24.302Z,7.50
2023-03-18T08:14:39.978Z,7.50
2023-03-18T08:15:41.994Z,7.50
2023-03-18T08:16:44.016Z,7.50
2023-03-18T08:17:46.238Z,7.50
2023-03-18T08:18:48.254Z,7.50
2023-03-18T08:19:50.174Z,7.50
2023-03-18T08:20:53.149Z,7.50
2023-03-18T08:21:55.982Z,7.60
2023-03-18T08:22:58.020Z,7.60
2023-03-18T08:23:59.941Z,7.60
2023-03-18T08:25:01.932Z,7.60
2023-03-18T08:26:04.937Z,7.60
2023-03-18T08:27:07.056Z,7.60
2023-03-18T08:28:09.127Z,7.60
2023-03-18T08:29:11.218Z,7.70
2023-03-18T08:30:13.893Z,7.60
2023-03-18T08:31:16.106Z,7.70
2023-03-18T08:32:18.925Z,7.70
2023-03-18T08:33:20.895Z,7.60
2023-03-18T08:34:23.530Z,7.60
2023-03-18T08:35:25.922Z,7.60
2023-03-18T08:36:28.789Z,7.60
2023-03-18T08:37:31.341Z,7.70
2023-03-18T08:38:53.651Z,7.70
2023-03-18T08:39:55.805Z,7.60
2023-03-18T08:40:58.018Z,7.60
2023-03-18T08:42:00.000Z,7.60
2023-03-18T08:43:01.976Z,7.60
2023-03-18T08:44:06.614Z,7.60
2023-03-18T08:45:09.644Z,7.70
2023-03-18T08:46:11.890Z,7.70
2023-03-18T08:47:13.929Z,7.70
2023-03-18T08:48:16.359Z,7.80
2023-03-18T08:49:18.755Z,7.80
2023-03-18T08:50:21.036Z,7.80
2023-03-18T08:51:25.698Z,7.80
2023-03-18T08:52:27.818Z,7.80
2023-03-18T08:53:30.077Z,7.80
2023-03-18T08:54:31.980Z,7.80
2023-03-18T08:55:37.245Z,7.80
2023-03-18T08:56:39.436Z,7.90
2023-03-18T08:57:42.831Z,7.90
2023-03-18T08:58:46.199Z,7.90
2023-03-18T08:59:48.237Z,7.90
2023-03-18T09:00:52.533Z,7.90
2023-03-18T09:01:54.752Z,7.90
2023-03-18T09:02:56.814Z,7.80
2023-03-18T09:03:59.748Z,7.80
2023-03-18T09:05:01.806Z,7.80
2023-03-18T09:06:04.806Z,7.90
2023-03-18T09:07:06.785Z,7.90
2023-03-18T09:08:09.291Z,7.90
2023-03-18T09:09:12.194Z,7.90
2023-03-18T09:10:14.902Z,7.90
2023-03-18T09:11:18.158Z,8.00
2023-03-18T09:12:20.089Z,8.00
2023-03-18T09:13:23.178Z,8.00
2023-03-18T09:14:26.050Z,8.00
2023-03-18T09:15:28.072Z,8.00
2023-03-18T09:16:30.045Z,8.00
2023-03-18T09:17:48.858Z,8.00
2023-03-18T09:18:54.341Z,8.00
2023-03-18T09:19:56.711Z,8.00
2023-03-18T09:20:58.759Z,8.10
2023-03-18T09:22:01.098Z,8.10
2023-03-18T09:23:04.091Z,8.10
2023-03-18T09:24:07.506Z,8.20
2023-03-18T09:25:10.788Z,8.20
2023-03-18T09:26:12.894Z,8.30
2023-03-18T09:27:15.039Z,8.30
2023-03-18T09:28:17.078Z,8.40
2023-03-18T09:29:19.105Z,8.40
2023-03-18T09:30:21.893Z,8.50
2023-03-18T09:31:24.796Z,8.50
2023-03-18T09:32:26.930Z,8.50
2023-03-18T09:33:28.905Z,8.50
2023-03-18T09:34:31.279Z,8.50
2023-03-18T09:35:34.142Z,8.50
2023-03-18T09:36:36.567Z,8.50
2023-03-18T09:37:38.796Z,8.60
2023-03-18T09:38:42.623Z,8.60
2023-03-18T09:39:44.988Z,8.70
2023-03-18T09:41:10.257Z,8.70
2023-03-18T09:42:51.197Z,8.70
2023-03-18T09:44:11.305Z,8.70
2023-03-18T09:45:47.116Z,8.70
2023-03-18T09:47:05.938Z,8.70
2023-03-18T09:48:37.557Z,8.80
2023-03-18T09:50:06.941Z,8.90
2023-03-18T09:51:11.776Z,9.00
2023-03-18T09:52:28.837Z,9.00
2023-03-18T09:53:56.149Z,9.10
2023-03-18T09:55:13.010Z,9.30
2023-03-18T09:56:20.736Z,9.30
2023-03-18T09:57:43.642Z,9.30
2023-03-18T09:58:52.439Z,9.30
2023-03-18T10:00:05.446Z,9.30
2023-03-18T10:01:10.584Z,9.50
2023-03-18T10:02:35.097Z,9.60
2023-03-18T10:04:01.039Z,9.60
2023-03-18T10:05:31.429Z,9.70
2023-03-18T10:06:37.159Z,9.70
2023-03-18T10:07:42.976Z,9.80
2023-03-18T10:09:10.164Z,9.80
2023-03-18T10:10:24.102Z,9.90
2023-03-18T10:11:32.164Z,9.90
2023-03-18T10:12:42.299Z,9.90
2023-03-18T10:14:29.345Z,9.80
2023-03-18T10:15:38.490Z,9.90
2023-03-18T10:16:58.622Z,9.90
2023-03-18T10:18:10.495Z,9.90
2023-03-18T10:19:12.455Z,10.00
2023-03-18T10:20:29.195Z,10.00
2023-03-18T10:22:07.645Z,10.10
2023-03-18T10:23:41.914Z,10.10
2023-03-18T10:25:21.179Z,10.10
2023-03-18T10:26:32.327Z,10.20
2023-03-18T10:27:58.212Z,10.10
2023-03-18T10:29:37.918Z,10.10
2023-03-18T10:31:16.581Z,10.00
2023-03-18T10:32:49.427Z,9.90
2023-03-18T10:34:11.947Z,9.90
2023-03-18T10:35:22.770Z,10.00
2023-03-18T10:36:35.754Z,10.10
2023-03-18T10:38:03.632Z,10.10
2023-03-18T10:39:13.690Z,10.20
2023-03-18T10:40:18.274Z,10.30
2023-03-18T10:41:31.378Z,10.40
2023-03-18T10:42:36.059Z,10.50
2023-03-18T10:43:38.186Z,10.50
2023-03-18T10:44:42.153Z,10.60
2023-03-18T10:45:46.951Z,10.80
2023-03-18T10:46:57.916Z,10.90
2023-03-18T10:48:10.797Z,10.90
2023-03-18T10:49:17.617Z,10.90
2023-03-18T10:50:23.769Z,10.90
2023-03-18T10:51:40.316Z,11.00
2023-03-18T10:53:23.947Z,10.90
2023-03-18T10:54:44.197Z,10.90
2023-03-18T10:55:57.415Z,10.70
2023-03-18T10:56:59.755Z,10.50
2023-03-18T10:58:14.838Z,10.40
2023-03-18T10:59:18.779Z,10.50
2023-03-18T11:00:36.449Z,10.50
2023-03-18T11:01:39.695Z,10.60
2023-03-18T11:02:41.929Z,10.60
2023-03-18T11:04:03.989Z,10.50
2023-03-18T11:05:22.836Z,10.90
2023-03-18T11:06:45.904Z,11.40
2023-03-18T11:08:01.544Z,11.70
2023-03-18T11:09:10.681Z,12.40
2023-03-18T11:10:23.895Z,13.10
2023-03-18T11:11:34.775Z,13.40
2023-03-18T11:12:37.024Z,13.80
2023-03-18T11:13:39.059Z,13.90
2023-03-18T11:14:42.326Z,14.10
2023-03-18T11:15:50.325Z,14.30
2023-03-18T11:16:57.961Z,14.20
2023-03-18T11:18:04.875Z,14.10
2023-03-18T11:19:32.512Z,14.40
2023-03-18T11:20:47.609Z,14.40
2023-03-18T11:21:59.345Z,14.10
2023-03-18T11:23:13.757Z,13.40
2023-03-18T11:24:39.767Z,12.80
2023-03-18T11:25:46.874Z,12.10
2023-03-18T11:26:57.168Z,11.80
2023-03-18T11:28:04.487Z,11.70
2023-03-18T11:29:13.755Z,11.90
2023-03-18T11:30:41.132Z,12.20
2023-03-18T11:32:00.369Z,12.50
2023-03-18T11:33:08.203Z,12.90
2023-03-18T11:34:10.430Z,13.10
2023-03-18T11:35:20.748Z,13.30
2023-03-18T11:36:24.573Z,13.40
2023-03-18T11:37:41.976Z,13.50
2023-03-18T11:38:44.758Z,13.60
2023-03-18T11:39:49.386Z,13.60
2023-03-18T11:40:53.798Z,13.80
2023-03-18T11:41:55.837Z,13.80
2023-03-18T11:43:03.099Z,14.00
2023-03-18T11:44:19.119Z,14.00
2023-03-18T11:45:23.688Z,14.20
2023-03-18T11:46:29.035Z,14.30
2023-03-18T11:47:35.242Z,14.20
2023-03-18T11:48:39.881Z,14.30
2023-03-18T11:49:44.177Z,14.50
2023-03-18T11:51:24.607Z,14.50
2023-03-18T11:52:36.304Z,14.40
2023-03-18T11:53:47.442Z,14.50
2023-03-18T11:55:01.841Z,14.60
2023-03-18T11:56:12.896Z,14.80
2023-03-18T11:57:32.353Z,14.80
2023-03-18T11:59:06.068Z,14.80
2023-03-18T12:00:45.804Z,14.80
2023-03-18T12:02:04.933Z,14.70
2023-03-18T12:03:25.519Z,14.80
2023-03-18T12:04:42.757Z,14.80
2023-03-18T12:05:59.389Z,14.90
2023-03-18T12:07:13.777Z,14.90
2023-03-18T12:08:23.517Z,14.90
2023-03-18T12:09:49.996Z,14.90
2023-03-18T12:11:07.530Z,15.00
2023-03-18T12:12:21.787Z,15.10
2023-03-18T12:13:23.630Z,15.20
2023-03-18T12:14:38.979Z,15.40
2023-03-18T12:16:02.473Z,15.90
2023-03-18T12:17:34.781Z,15.90
2023-03-18T12:19:05.141Z,15.90
2023-03-18T12:20:24.725Z,16.10
2023-03-18T12:21:49.303Z,16.00
2023-03-18T12:23:03.415Z,15.80
2023-03-18T12:24:30.428Z,15.60
2023-03-18T12:25:54.846Z,15.40
2023-03-18T12:26:59.932Z,15.30
2023-03-18T12:28:20.740Z,15.40
2023-03-18T12:29:41.246Z,15.40
2023-03-18T12:31:06.772Z,15.60
2023-03-18T12:32:26.488Z,15.60
2023-03-18T12:33:34.462Z,15.20
2023-03-18T12:35:16.079Z,15.10
2023-03-18T12:36:24.100Z,14.90
2023-03-18T12:38:08.647Z,14.50
2023-03-18T12:39:26.548Z,14.40
2023-03-18T12:40:45.213Z,14.10
2023-03-18T12:42:08.220Z,13.60
2023-03-18T12:43:39.725Z,13.50
2023-03-18T12:44:44.450Z,13.30
2023-03-18T12:45:51.041Z,13.10
2023-03-18T12:47:09.455Z,13.00
2023-03-18T12:48:16.713Z,13.10
2023-03-18T12:49:19.876Z,13.10
2023-03-18T12:50:38.356Z,13.10
2023-03-18T12:52:04.450Z,13.20
2023-03-18T12:53:17.270Z,13.10
2023-03-18T12:54:26.674Z,13.10
2023-03-18T12:55:32.668Z,13.00
2023-03-18T12:56:41.114Z,13.10
2023-03-18T12:57:48.765Z,13.10
2023-03-18T12:59:22.278Z,13.00
2023-03-18T13:00:35.591Z,12.70
2023-03-18T13:01:49.443Z,12.40
2023-03-18T13:03:28.395Z,12.40
2023-03-18T13:04:33.383Z,12.40
2023-03-18T13:05:53.446Z,12.30
2023-03-18T13:07:16.570Z,12.30
2023-03-18T13:08:46.316Z,12.50
2023-03-18T13:09:59.108Z,12.40
2023-03-18T13:11:30.107Z,12.40
2023-03-18T13:12:39.679Z,12.50
2023-03-18T13:13:48.682Z,12.50
2023-03-18T13:15:08.501Z,12.60
2023-03-18T13:16:14.005Z,12.90
2023-03-18T13:17:23.596Z,13.00
2023-03-18T13:18:48.728Z,13.20
2023-03-18T13:19:50.894Z,13.60
2023-03-18T13:20:56.819Z,14.10
2023-03-18T13:22:18.985Z,14.10
2023-03-18T13:23:42.180Z,14.00
2023-03-18T13:25:02.508Z,13.50
2023-03-18T13:26:24.814Z,13.10
2023-03-18T13:27:44.780Z,12.70
2023-03-18T13:29:07.658Z,12.40
2023-03-18T13:30:17.439Z,12.20
2023-03-18T13:31:25.046Z,12.00
2023-03-18T13:32:39.252Z,11.90
2023-03-18T13:34:00.206Z,11.70
2023-03-18T13:35:13.152Z,11.60
2023-03-18T13:36:42.379Z,11.50
2023-03-18T13:38:06.185Z,11.40
2023-03-18T13:39:17.638Z,11.40
2023-03-18T13:40:22.568Z,11.30
2023-03-18T13:41:36.340Z,11.40
2023-03-18T13:42:40.692Z,11.40
2023-03-18T13:43:49.333Z,11.50
2023-03-18T13:45:34.225Z,11.60
2023-03-18T13:46:36.537Z,11.50
2023-03-18T13:47:40.593Z,11.40
2023-03-18T13:48:42.690Z,11.40
2023-03-18T13:49:45.657Z,11.30
2023-03-18T13:50:50.668Z,11.20
2023-03-18T13:51:59.750Z,11.30
2023-03-18T13:53:04.299Z,11.30
2023-03-18T13:54:14.711Z,11.30
2023-03-18T13:55:31.948Z,11.30
2023-03-18T13:56:43.292Z,11.30
2023-03-18T13:58:05.137Z,11.30
2023-03-18T13:59:28.624Z,11.30
2023-03-18T14:00:36.048Z,11.20
2023-03-18T14:01:50.941Z,11.20
2023-03-18T14:03:20.265Z,11.20
2023-03-18T14:04:45.980Z,11.20
2023-03-18T14:05:50.366Z,11.20
2023-03-18T14:06:57.051Z,11.10
2023-03-18T14:07:59.396Z,11.10
2023-03-18T14:09:32.428Z,11.20
2023-03-18T14:10:34.413Z,11.20
2023-03-18T14:11:47.353Z,11.20
2023-03-18T14:12:49.792Z,11.20
2023-03-18T14:14:02.103Z,11.10
2023-03-18T14:15:37.244Z,11.10
2023-03-18T14:16:42.344Z,11.10
2023-03-18T14:17:55.612Z,11.10
2023-03-18T14:19:28.786Z,11.10
2023-03-18T14:20:43.117Z,11.00
2023-03-18T14:22:08.353Z,11.00
2023-03-18T14:23:38.711Z,10.90
2023-03-18T14:24:40.882Z,10.90
2023-03-18T14:25:44.312Z,10.80
2023-03-18T14:27:10.492Z,10.80
2023-03-18T14:28:19.496Z,10.80
2023-03-18T14:29:41.927Z,10.70
2023-03-18T14:30:45.933Z,10.70
2023-03-18T14:32:22.954Z,10.60
2023-03-18T14:33:24.853Z,10.60
2023-03-18T14:34:54.226Z,10.50
2023-03-18T14:36:10.448Z,10.50
2023-03-18T14:37:19.703Z,10.50
2023-03-18T14:38:25.981Z,10.50
2023-03-18T14:39:38.654Z,10.50
2023-03-18T14:40:44.576Z,10.50
2023-03-18T14:41:52.642Z,10.40
2023-03-18T14:43:03.628Z,10.40
2023-03-18T14:44:21.982Z,10.40
2023-03-18T14:45:27.589Z,10.40
2023-03-18T14:46:34.715Z,10.40